Time;durP1;ratioP1;P1;durP2;ratioP2;P2;SDS_P1;SDS_P2;PMS_P1;PMS_P2;Temp;Humidity;BMP_temperature;BMP_pressure;BME280_temperature;BME280_humidity;BME280_pressure;Samples;Min_cycle;Max_cycle;Signal;HPM_P1;HPM_P2
2021/04/22 00:01:43;;;;;;;7.53;3.22;;;;;;;22.84;45.29;98391.69;5138698;27;20649;-65
2021/04/22 00:04:09;;;;;;;7.57;3.50;;;;;;;22.82;45.52;98399.84;5119701;27;20288;-63
2021/04/22 00:06:35;;;;;;;5.50;2.70;;;;;;;22.83;45.44;98395.34;5134879;27;20217;-63
2021/04/22 00:09:03;;;;;;;8.98;3.63;;;;;;;22.82;45.62;98404.38;5121994;27;20193;-63
2021/04/22 00:11:29;;;;;;;6.57;3.38;;;;;;;22.80;44.95;98393.88;5125184;27;20307;-65
2021/04/22 00:13:55;;;;;;;7.15;3.28;;;;;;;22.80;45.07;98399.19;5118588;27;20197;-66
2021/04/22 00:16:21;;;;;;;5.63;2.92;;;;;;;22.81;44.74;98392.84;5124672;27;20290;-65
2021/04/22 00:18:48;;;;;;;8.57;2.90;;;;;;;22.80;45.71;98398.34;5119129;27;20282;-65
2021/04/22 00:21:14;;;;;;;5.60;3.03;;;;;;;22.79;45.13;98400.19;5118055;27;20304;-63
2021/04/22 00:23:40;;;;;;;8.18;3.20;;;;;;;22.78;45.16;98408.34;5117951;27;20292;-65
2021/04/22 00:26:07;;;;;;;5.75;2.80;;;;;;;22.78;44.67;98409.16;5112583;27;20212;-64
2021/04/22 00:28:33;;;;;;;7.15;3.08;;;;;;;22.78;44.63;98409.16;5123319;27;20205;-64
2021/04/22 00:30:59;;;;;;;7.68;3.55;;;;;;;22.74;45.17;98405.16;5112476;27;20215;-63
2021/04/22 00:33:25;;;;;;;6.03;3.25;;;;;;;22.72;45.06;98405.31;5124902;27;20609;-64
2021/04/22 00:35:51;;;;;;;6.32;3.00;;;;;;;22.73;45.31;98409.69;5125559;27;20220;-65
2021/04/22 00:38:18;;;;;;;10.05;3.28;;;;;;;22.72;44.43;98404.50;5121334;27;20320;-64
2021/04/22 00:40:47;;;;;;;6.82;3.28;;;;;;;22.71;44.60;98397.50;5125584;27;20259;-60
2021/04/22 00:43:15;;;;;;;5.40;2.70;;;;;;;22.70;44.31;98401.19;5124730;27;20280;-63
2021/04/22 00:45:42;;;;;;;6.63;3.05;;;;;;;22.69;44.62;98402.16;5135159;27;20241;-65
2021/04/22 00:48:09;;;;;;;8.40;3.35;;;;;;;22.70;44.31;98406.50;5118311;27;20575;-65
2021/04/22 00:50:38;;;;;;;7.15;3.40;;;;;;;22.68;44.57;98408.47;5125699;27;20705;-65
2021/04/22 00:53:05;;;;;;;5.30;2.90;;;;;;;22.67;44.40;98410.31;5126431;27;20369;-63
2021/04/22 00:55:32;;;;;;;7.43;3.30;;;;;;;22.67;44.01;98401.50;5131969;27;20205;-63
2021/04/22 00:57:58;;;;;;;5.20;3.10;;;;;;;22.67;44.18;98406.81;5118863;27;20268;-62
2021/04/22 01:00:28;;;;;;;6.40;3.42;;;;;;;22.67;44.90;98398.84;5122254;27;20231;-63
2021/04/22 01:02:55;;;;;;;6.45;3.08;;;;;;;22.67;44.62;98404.16;5109563;27;20224;-64
2021/04/22 01:05:24;;;;;;;5.75;2.65;;;;;;;22.67;45.42;98394.31;5125451;27;20204;-63
2021/04/22 01:07:50;;;;;;;6.90;3.17;;;;;;;22.67;45.57;98390.84;5112385;27;20288;-64
2021/04/22 01:10:19;;;;;;;7.30;2.72;;;;;;;22.68;45.43;98379.16;5115261;27;20213;-63
2021/04/22 01:12:45;;;;;;;6.47;2.72;;;;;;;22.68;44.69;98376.50;5115268;27;20227;-62
2021/04/22 01:15:16;;;;;;;4.07;2.58;;;;;;;22.68;45.17;98381.81;5126095;27;20299;-63
2021/04/22 01:17:43;;;;;;;6.28;3.05;;;;;;;22.69;46.00;98383.50;5123343;27;20315;-62
2021/04/22 01:20:13;;;;;;;6.38;2.92;;;;;;;22.69;45.82;98386.19;5118191;27;20857;-63
2021/04/22 01:22:40;;;;;;;6.53;2.97;;;;;;;22.67;45.38;98383.66;5117107;27;20216;-63
2021/04/22 01:25:09;;;;;;;8.77;2.88;;;;;;;22.67;45.22;98383.66;5119120;27;20211;-64
2021/04/22 01:27:37;;;;;;;5.80;2.75;;;;;;;22.67;46.10;98380.19;5118809;27;20486;-63
2021/04/22 01:30:06;;;;;;;5.68;2.72;;;;;;;22.68;45.80;98381.81;5124077;27;20197;-63
2021/04/22 01:32:32;;;;;;;4.60;2.60;;;;;;;22.68;45.68;98379.16;5105337;28;20228;-60
2021/04/22 01:34:58;;;;;;;5.57;2.97;;;;;;;22.68;45.79;98381.81;5124398;27;20538;-63
2021/04/22 01:37:25;;;;;;;6.35;3.03;;;;;;;22.67;45.46;98390.84;5118421;27;20210;-63
2021/04/22 01:39:52;;;;;;;7.15;3.00;;;;;;;22.67;45.36;98382.84;5109723;27;21011;-63
2021/04/22 01:42:18;;;;;;;4.22;2.33;;;;;;;22.66;46.28;98394.50;5112703;27;20232;-62
2021/04/22 01:44:44;;;;;;;4.50;2.80;;;;;;;22.66;46.18;98399.81;5109418;27;20206;-64
2021/04/22 01:47:12;;;;;;;4.00;2.70;;;;;;;22.66;45.61;98394.50;5117962;27;20208;-63
2021/04/22 01:49:38;;;;;;;4.10;2.38;;;;;;;22.66;46.55;98400.63;5119192;27;20658;-61
2021/04/22 01:52:05;;;;;;;5.97;2.97;;;;;;;22.64;46.15;98401.81;5124061;27;20284;-63
2021/04/22 01:54:31;;;;;;;4.82;2.78;;;;;;;22.65;45.87;98414.13;5117065;27;20291;-62
2021/04/22 01:56:58;;;;;;;3.75;2.30;;;;;;;22.65;46.41;98414.13;5110194;27;20188;-63
2021/04/22 01:59:24;;;;;;;5.22;2.90;;;;;;;22.64;45.72;98417.81;5116885;28;20217;-63
2021/04/22 02:01:50;;;;;;;5.13;2.67;;;;;;;22.62;45.71;98423.28;5123039;27;20672;-60
2021/04/22 02:04:16;;;;;;;7.88;2.95;;;;;;;22.63;46.50;98424.13;5122691;27;20295;-63
2021/04/22 02:06:42;;;;;;;5.30;2.85;;;;;;;22.62;45.96;98431.28;5125645;27;20646;-62
2021/04/22 02:09:08;;;;;;;3.67;2.40;;;;;;;22.63;46.41;98432.97;5124181;27;20201;-62
2021/04/22 02:11:34;;;;;;;4.13;2.60;;;;;;;22.60;45.65;98427.09;5126657;27;20224;-62
2021/04/22 02:14:01;;;;;;;5.03;2.55;;;;;;;22.61;46.29;98434.09;5128700;27;20193;-62
2021/04/22 02:16:27;;;;;;;5.55;3.03;;;;;;;22.61;46.40;98439.44;5123046;27;20315;-63
2021/04/22 02:18:53;;;;;;;5.00;2.75;;;;;;;22.61;45.71;98434.94;5123769;27;20211;-63
2021/04/22 02:21:20;;;;;;;5.82;2.90;;;;;;;22.61;46.50;98434.09;5120290;27;20667;-63
2021/04/22 02:23:46;;;;;;;4.57;2.45;;;;;;;22.60;46.00;98435.94;5121449;27;20197;-63
2021/04/22 02:26:12;;;;;;;4.95;2.90;;;;;;;22.61;46.39;98447.44;5120337;27;20223;-65
2021/04/22 02:28:38;;;;;;;5.53;2.75;;;;;;;22.60;45.77;98441.28;5130951;27;20204;-62
2021/04/22 02:31:05;;;;;;;6.22;2.90;;;;;;;22.60;46.00;98443.09;5123030;27;20203;-64
2021/04/22 02:33:31;;;;;;;4.78;2.90;;;;;;;22.60;46.61;98448.41;5119895;27;20780;-61
2021/04/22 02:35:57;;;;;;;5.38;2.85;;;;;;;22.60;46.60;98443.94;5129942;27;20816;-65
2021/04/22 02:38:23;;;;;;;5.65;3.13;;;;;;;22.59;45.56;98449.44;5129219;27;20585;-64
2021/04/22 02:40:49;;;;;;;7.15;2.92;;;;;;;22.59;46.03;98449.44;5125811;27;20352;-58
2021/04/22 02:43:17;;;;;;;5.40;2.45;;;;;;;22.60;46.09;98464.41;5127277;27;20249;-63
2021/04/22 02:45:45;;;;;;;5.15;2.78;;;;;;;22.58;45.88;98464.56;5128274;27;20204;-64
2021/04/22 02:48:13;;;;;;;4.28;2.80;;;;;;;22.58;45.65;98461.06;5123033;27;20615;-62
2021/04/22 02:50:42;;;;;;;5.03;3.13;;;;;;;22.58;46.49;98459.22;5126060;27;20197;-63
2021/04/22 02:53:09;;;;;;;6.07;2.90;;;;;;;22.58;46.60;98455.75;5115955;27;20324;-64
2021/04/22 02:55:35;;;;;;;5.68;3.00;;;;;;;;;;5126372;27;20203;-64
2021/04/22 02:58:01;;;;;;;5.57;3.00;;;;;;;22.58;45.82;98461.06;5121291;27;20258;-65
2021/04/22 03:00:28;;;;;;;4.63;2.90;;;;;;;22.56;46.24;98468.41;5117401;27;20216;-63
2021/04/22 03:02:54;;;;;;;6.40;2.80;;;;;;;22.56;46.76;98471.06;5128280;27;20299;-63
2021/04/22 03:05:21;;;;;;;3.72;2.78;;;;;;;22.55;46.99;98470.25;5130827;27;20843;-64
2021/04/22 03:07:47;;;;;;;4.05;2.60;;;;;;;22.54;46.57;98468.56;5119096;27;20197;-64
2021/04/22 03:10:17;;;;;;;5.05;2.75;;;;;;;22.55;46.02;98470.25;5115990;27;20317;-63
2021/04/22 03:12:43;;;;;;;4.72;2.97;;;;;;;22.56;46.86;98473.72;5124695;27;20224;-63
2021/04/22 03:15:11;;;;;;;5.40;2.83;;;;;;;22.56;46.53;98473.72;5122883;27;20199;-64
2021/04/22 03:17:37;;;;;;;3.97;2.80;;;;;;;22.56;47.02;98473.72;5127536;27;20197;-64
2021/04/22 03:20:04;;;;;;;6.47;3.00;;;;;;;22.54;46.00;98477.38;5125658;27;20311;-59
2021/04/22 03:22:32;;;;;;;5.05;2.47;;;;;;;22.56;45.87;98474.56;5127016;27;20400;-64
2021/04/22 03:24:58;;;;;;;4.97;3.33;;;;;;;22.57;46.06;98480.72;5122328;27;20205;-63
2021/04/22 03:27:24;;;;;;;5.88;3.10;;;;;;;22.54;45.96;98474.72;5119647;27;20324;-62
2021/04/22 03:29:50;;;;;;;5.68;2.97;;;;;;;22.54;46.54;98482.69;5128007;27;20200;-63
2021/04/22 03:32:16;;;;;;;5.15;3.03;;;;;;;22.54;46.77;98488.03;5114492;27;20698;-62
2021/04/22 03:34:42;;;;;;;3.40;2.45;;;;;;;22.52;45.82;98489.19;5127337;27;20300;-62
2021/04/22 03:37:09;;;;;;;5.40;2.40;;;;;;;22.53;46.63;98496.19;5122728;27;20211;-63
2021/04/22 03:39:35;;;;;;;3.85;2.60;;;;;;;22.50;46.79;98485.88;5125048;27;20230;-64
2021/04/22 03:42:02;;;;;;;6.22;2.95;;;;;;;22.51;46.96;98484.84;5132085;27;20243;-62
2021/04/22 03:44:28;;;;;;;5.78;2.38;;;;;;;22.56;46.69;98489.72;5125602;27;20216;-62
2021/04/22 03:46:54;;;;;;;5.35;2.72;;;;;;;22.58;46.16;98504.53;5126441;27;20199;-65
2021/04/22 03:49:20;;;;;;;4.93;2.58;;;;;;;22.61;46.95;98498.06;5125358;27;20197;-63
2021/04/22 03:51:46;;;;;;;3.30;2.20;;;;;;;22.62;46.58;98505.91;5125709;27;20247;-63
2021/04/22 03:54:12;;;;;;;4.15;2.53;;;;;;;22.63;46.42;98506.72;5125618;27;20699;-63
2021/04/22 03:56:39;;;;;;;4.75;2.60;;;;;;;22.63;46.73;98512.06;5123121;27;20198;-63
2021/04/22 03:59:05;;;;;;;3.97;2.47;;;;;;;22.65;46.04;98515.38;5109992;27;20650;-63
2021/04/22 04:01:31;;;;;;;5.22;2.50;;;;;;;22.65;46.33;98516.25;5112030;27;20319;-63
2021/04/22 04:03:58;;;;;;;4.93;2.63;;;;;;;22.66;45.90;98517.88;5130646;27;20750;-63
2021/04/22 04:06:24;;;;;;;5.35;2.47;;;;;;;22.67;45.79;98529.41;5125009;27;20193;-63
2021/04/22 04:08:50;;;;;;;5.05;2.67;;;;;;;22.67;45.98;98534.72;5124683;27;20211;-64
2021/04/22 04:11:16;;;;;;;6.43;2.65;;;;;;;22.68;46.51;98541.72;5124559;27;20226;-63
2021/04/22 04:13:43;;;;;;;3.58;2.28;;;;;;;22.68;46.46;98536.38;5120508;27;20205;-63
2021/04/22 04:16:09;;;;;;;3.38;2.30;;;;;;;22.68;45.94;98536.38;5125071;27;20208;-64
2021/04/22 04:18:35;;;;;;;4.95;2.65;;;;;;;22.68;46.26;98539.06;5120877;27;20209;-63
2021/04/22 04:21:01;;;;;;;4.18;2.40;;;;;;;22.67;46.16;98535.56;5126565;27;20220;-63
2021/04/22 04:23:27;;;;;;;3.65;2.65;;;;;;;22.68;46.56;98542.56;5125666;27;20203;-64
2021/04/22 04:25:53;;;;;;;4.22;2.40;;;;;;;22.69;46.08;98548.72;5122379;27;20650;-63
2021/04/22 04:28:19;;;;;;;3.83;2.40;;;;;;;22.70;45.92;98547.75;5120592;27;20281;-63
2021/04/22 04:30:46;;;;;;;3.50;2.15;;;;;;;22.71;46.74;98546.72;5116529;27;20307;-63
2021/04/22 04:33:13;;;;;;;4.25;2.42;;;;;;;22.71;45.63;98541.41;5129945;27;20279;-63
2021/04/22 04:35:39;;;;;;;3.78;2.30;;;;;;;22.72;46.24;98548.41;5124206;27;20306;-63
2021/04/22 04:38:06;;;;;;;4.65;2.22;;;;;;;22.71;46.33;98552.06;5116766;27;20200;-65
2021/04/22 04:40:33;;;;;;;4.45;2.30;;;;;;;22.73;45.85;98555.41;5121811;27;20221;-63
2021/04/22 04:42:59;;;;;;;3.58;2.20;;;;;;;22.73;46.79;98566.91;5123516;27;20656;-63
2021/04/22 04:45:25;;;;;;;4.95;2.38;;;;;;;22.74;46.24;98567.75;5124247;27;20200;-61
2021/04/22 04:47:52;;;;;;;3.78;2.47;;;;;;;22.73;46.43;98571.38;5114537;27;20204;-65
2021/04/22 04:50:18;;;;;;;3.72;2.20;;;;;;;22.74;45.84;98575.72;5113763;27;20216;-63
2021/04/22 04:52:45;;;;;;;5.15;2.20;;;;;;;22.75;46.50;98585.41;5107480;27;20331;-63
2021/04/22 04:55:12;;;;;;;3.53;2.28;;;;;;;22.76;45.53;98586.25;5113855;27;20256;-63
2021/04/22 04:57:39;;;;;;;4.20;2.35;;;;;;;22.76;45.40;98592.41;5117649;27;20539;-64
2021/04/22 05:00:07;;;;;;;4.43;2.38;;;;;;;22.76;45.29;98594.22;5121415;27;20246;-63
2021/04/22 05:02:34;;;;;;;4.05;2.28;;;;;;;22.77;45.82;98588.75;5122289;27;20246;-61
2021/04/22 05:05:01;;;;;;;4.60;2.40;;;;;;;22.77;45.25;98593.25;5123457;27;20279;-63
2021/04/22 05:07:27;;;;;;;4.10;2.35;;;;;;;22.79;45.55;98596.59;5122033;27;20219;-63
2021/04/22 05:09:53;;;;;;;2.72;2.03;;;;;;;22.79;44.84;98600.06;5134137;27;20197;-62
2021/04/22 05:12:19;;;;;;;3.40;2.33;;;;;;;22.79;45.67;98597.41;5122676;27;20712;-62
2021/04/22 05:14:45;;;;;;;2.30;2.10;;;;;;;22.80;45.46;98604.44;5128279;27;20208;-62
2021/04/22 05:17:11;;;;;;;5.47;2.88;;;;;;;22.79;45.14;98610.75;5138051;27;20236;-63
2021/04/22 05:19:37;;;;;;;4.75;2.75;;;;;;;22.78;44.54;98611.72;5123930;27;20664;-62
2021/04/22 05:22:05;;;;;;;4.35;2.92;;;;;;;22.78;44.85;98617.06;5132801;27;20416;-63
2021/04/22 05:24:31;;;;;;;4.13;2.80;;;;;;;22.79;45.33;98625.91;5116121;27;20282;-61
2021/04/22 05:26:57;;;;;;;4.78;2.92;;;;;;;22.79;44.64;98629.41;5117070;27;20260;-63
2021/04/22 05:29:23;;;;;;;4.53;3.17;;;;;;;22.78;44.57;98637.56;5125226;27;20204;-63
2021/04/22 05:31:49;;;;;;;6.70;2.75;;;;;;;22.72;44.54;98637.19;5116106;28;20224;-66
2021/04/22 05:34:15;;;;;;;15.80;3.60;;;;;;;22.73;46.72;98630.88;5119279;27;20228;-65
2021/04/22 05:36:41;;;;;;;21.80;4.20;;;;;;;22.73;46.37;98630.03;5129182;27;20735;-64
2021/04/22 05:39:09;;;;;;;24.15;5.35;;;;;;;22.75;46.62;98638.72;5132757;27;20287;-63
2021/04/22 05:41:35;;;;;;;22.33;4.40;;;;;;;22.78;46.88;98645.53;5129363;27;20979;-63
2021/04/22 05:44:01;;;;;;;14.95;4.07;;;;;;;22.80;47.09;98647.06;5129753;27;20222;-62
2021/04/22 05:46:28;;;;;;;22.30;4.60;;;;;;;22.80;46.47;98641.75;5128969;27;20204;-64
2021/04/22 05:48:54;;;;;;;17.90;3.97;;;;;;;22.85;46.48;98643.94;5128505;27;20209;-61
2021/04/22 05:51:20;;;;;;;19.58;3.65;;;;;;;22.88;46.11;98640.94;5127408;27;20248;-63
2021/04/22 05:53:46;;;;;;;29.25;4.72;;;;;;;22.92;46.21;98651.13;5134404;27;20282;-65
2021/04/22 05:56:13;;;;;;;14.00;3.65;;;;;;;22.95;46.51;98655.31;5125709;27;20208;-65
2021/04/22 05:58:39;;;;;;;16.52;3.50;;;;;;;22.94;47.13;98656.31;5122740;27;20197;-60
2021/04/22 06:01:05;;;;;;;10.85;3.05;;;;;;;22.96;46.86;98661.47;5127727;27;20284;-65
2021/04/22 06:03:32;;;;;;;12.00;3.30;;;;;;;23.01;46.18;98662.66;5128175;27;20201;-63
2021/04/22 06:05:58;;;;;;;10.80;3.38;;;;;;;23.05;46.15;98660.56;5128186;27;20215;-64
2021/04/22 06:08:24;;;;;;;7.00;2.45;;;;;;;23.06;45.94;98672.88;5124317;27;20599;-66
2021/04/22 06:10:50;;;;;;;12.10;3.63;;;;;;;23.07;46.38;98677.25;5129196;27;20204;-67
2021/04/22 06:13:17;;;;;;;13.77;2.95;;;;;;;23.10;47.18;98684.94;5128574;27;20197;-66
2021/04/22 06:15:43;;;;;;;17.15;3.28;;;;;;;23.07;47.29;98683.41;5126588;27;20224;-67
2021/04/22 06:18:10;;;;;;;10.68;3.20;;;;;;;23.08;48.54;98674.44;5124283;27;20918;-67
2021/04/22 06:20:36;;;;;;;17.00;3.10;;;;;;;23.19;48.14;98678.63;5127246;27;20306;-68
2021/04/22 06:23:03;;;;;;;19.15;3.55;;;;;;;23.23;47.64;98684.47;5123597;27;20228;-68
2021/04/22 06:25:30;;;;;;;15.70;3.67;;;;;;;23.26;49.05;98684.16;5127687;27;20248;-68
2021/04/22 06:27:58;;;;;;;11.95;3.28;;;;;;;23.28;49.10;98688.38;5122402;27;20204;-66
2021/04/22 06:30:27;;;;;;;20.67;3.40;;;;;;;23.30;47.74;98695.34;5128777;27;20196;-68
2021/04/22 06:32:53;;;;;;;11.20;3.70;;;;;;;23.30;47.74;98701.53;5125088;27;20342;-69
2021/04/22 06:35:20;;;;;;;13.85;3.40;;;;;;;23.30;48.19;98700.69;5122369;27;20343;-70
2021/04/22 06:37:46;;;;;;;9.40;3.72;;;;;;;23.28;47.04;98706.19;5125794;27;20700;-68
2021/04/22 06:40:15;;;;;;;12.77;3.15;;;;;;;23.26;47.19;98709.03;5123538;27;20201;-70
2021/04/22 06:42:42;;;;;;;7.90;3.40;;;;;;;23.25;46.91;98715.34;5124257;27;20696;-66
2021/04/22 06:45:10;;;;;;;9.25;3.33;;;;;;;23.27;47.21;98720.53;5121829;27;20232;-68
2021/04/22 06:47:38;;;;;;;11.68;3.53;;;;;;;23.24;47.39;98716.34;5126066;27;20200;-69
2021/04/22 06:50:07;;;;;;;9.20;3.58;;;;;;;23.28;46.84;98725.72;5128604;27;20304;-67
2021/04/22 06:52:33;;;;;;;9.07;3.40;;;;;;;23.32;46.55;98731.56;5126248;27;20350;-67
2021/04/22 06:54:59;;;;;;;8.50;2.95;;;;;;;23.35;47.06;98736.56;5126548;27;20200;-70
2021/04/22 06:57:25;;;;;;;7.68;3.15;;;;;;;23.39;47.25;98739.75;5126575;27;21720;-69
2021/04/22 06:59:51;;;;;;;10.10;2.75;;;;;;;23.38;46.97;98735.41;5122594;27;20816;-68
2021/04/22 07:02:18;;;;;;;7.47;2.80;;;;;;;23.42;47.26;98739.44;5133811;27;20244;-70
2021/04/22 07:04:45;;;;;;;11.52;3.25;;;;;;;23.42;46.95;98736.78;5125041;27;20193;-67
2021/04/22 07:07:11;;;;;;;9.52;2.90;;;;;;;23.36;47.40;98748.06;5127841;27;20328;-62
2021/04/22 07:09:38;;;;;;;12.02;3.00;;;;;;;23.37;46.61;98747.09;5123913;27;20280;-63
2021/04/22 07:12:05;;;;;;;11.15;3.28;;;;;;;23.41;46.49;98745.75;5129645;27;20215;-64
2021/04/22 07:14:31;;;;;;;5.68;2.42;;;;;;;23.35;47.02;98760.59;5124650;27;20236;-64
2021/04/22 07:17:00;;;;;;;7.43;2.72;;;;;;;23.34;46.57;98761.56;5122793;27;20211;-65
2021/04/22 07:19:26;;;;;;;8.05;2.80;;;;;;;23.34;46.90;98756.22;5126829;27;20203;-52
2021/04/22 07:21:53;;;;;;;9.07;2.65;;;;;;;23.39;47.57;98763.78;5128409;27;20331;-64
2021/04/22 07:24:19;;;;;;;9.15;2.65;;;;;;;23.39;46.80;98763.78;5117979;27;20204;-63
2021/04/22 07:26:45;;;;;;;9.95;2.53;;;;;;;23.43;46.74;98765.13;5118416;27;20234;-63
2021/04/22 07:29:12;;;;;;;7.25;2.72;;;;;;;23.44;47.19;98772.13;5129001;27;20687;-63
2021/04/22 07:31:38;;;;;;;7.15;2.45;;;;;;;23.45;47.19;98774.66;5126974;27;20325;-61
2021/04/22 07:34:04;;;;;;;6.03;2.60;;;;;;;23.49;46.77;98767.16;5125624;27;20197;-62
2021/04/22 07:36:31;;;;;;;6.57;2.55;;;;;;;23.51;46.57;98764.34;5135339;27;20196;-62
2021/04/22 07:38:59;;;;;;;8.48;2.50;;;;;;;23.51;47.46;98767.81;5133481;27;20196;-65
2021/04/22 07:41:26;;;;;;;6.07;2.28;;;;;;;23.49;47.43;98775.16;5126681;27;20305;-61
2021/04/22 07:43:52;;;;;;;6.35;2.55;;;;;;;23.51;46.68;98783.84;5127857;27;20273;-62
2021/04/22 07:46:19;;;;;;;8.75;2.47;;;;;;;23.49;46.60;98777.81;5118987;27;20205;-62
2021/04/22 07:48:45;;;;;;;8.10;2.67;;;;;;;23.49;47.27;98782.34;5126598;27;20273;-63
2021/04/22 07:51:11;;;;;;;6.28;2.00;;;;;;;23.48;46.42;98780.66;5126431;27;20598;-63
2021/04/22 07:53:37;;;;;;;5.88;2.10;;;;;;;23.48;47.12;98783.31;5125925;27;20812;-65
2021/04/22 07:56:04;;;;;;;7.57;2.17;;;;;;;23.48;46.96;98784.16;5125866;27;20284;-63
2021/04/22 07:58:31;;;;;;;4.40;2.25;;;;;;;23.48;46.84;98786.81;5122065;27;20201;-62
2021/04/22 08:00:59;;;;;;;4.90;2.00;;;;;;;23.45;46.03;98781.81;5126184;27;20244;-61
2021/04/22 08:03:25;;;;;;;5.85;2.10;;;;;;;23.45;46.24;98785.31;5125009;27;20219;-58
2021/04/22 08:05:55;;;;;;;6.22;2.42;;;;;;;23.45;46.24;98788.00;5126224;27;20201;-64
2021/04/22 08:08:22;;;;;;;4.70;2.40;;;;;;;23.46;46.26;98792.34;5119577;27;20780;-63
2021/04/22 08:10:49;;;;;;;5.87;2.03;;;;;;;23.46;46.67;98797.69;5119824;27;20446;-61
2021/04/22 08:13:19;;;;;;;4.10;1.77;;;;;;;23.42;46.25;98796.31;5127350;27;20937;-64
2021/04/22 08:15:48;;;;;;;4.53;2.13;;;;;;;23.44;45.96;98790.81;5140874;27;20257;-62
2021/04/22 08:18:15;;;;;;;7.75;2.25;;;;;;;23.41;46.46;98799.94;5129147;27;20220;-55
2021/04/22 08:20:42;;;;;;;4.03;2.03;;;;;;;23.41;46.39;98804.47;5124956;27;20319;-59
2021/04/22 08:23:10;;;;;;;3.15;1.60;;;;;;;23.44;46.77;98798.81;5120793;27;20317;-63
2021/04/22 08:25:39;;;;;;;2.80;1.70;;;;;;;23.46;46.85;98800.34;5117432;27;20434;-63
2021/04/22 08:28:08;;;;;;;11.73;1.95;;;;;;;23.58;46.48;98802.72;5122476;27;20208;-60
2021/04/22 08:30:43;;;;;;;5.90;1.95;;;;;;;23.57;46.63;98804.56;5125546;27;20200;-63
2021/04/22 08:33:10;;;;;;;16.42;2.22;;;;;;;23.54;46.87;98799.53;5121562;27;20355;-60
2021/04/22 08:35:36;;;;;;;5.95;2.08;;;;;;;23.52;45.83;98814.88;5125292;27;20200;-63
2021/04/22 08:38:03;;;;;;;6.47;1.63;;;;;;;23.50;46.01;98800.88;5121187;27;20621;-64
2021/04/22 08:40:30;;;;;;;4.88;1.50;;;;;;;23.50;45.96;98816.88;5124735;27;20230;-60
2021/04/22 08:42:58;;;;;;;4.80;1.88;;;;;;;23.51;46.15;98809.69;5124512;27;20430;-62
2021/04/22 08:45:25;;;;;;;5.85;1.70;;;;;;;23.57;46.93;98825.09;5126871;27;20287;-62
2021/04/22 08:47:53;;;;;;;6.95;1.83;;;;;;;23.57;45.58;98825.91;5124223;27;20219;-60
2021/04/22 08:50:21;;;;;;;6.38;1.77;;;;;;;23.56;46.41;98812.72;5123661;27;20300;-57
2021/04/22 08:52:49;;;;;;;4.65;1.63;;;;;;;23.54;46.07;98815.53;5121552;27;20243;-62
2021/04/22 08:55:17;;;;;;;4.30;1.65;;;;;;;23.52;46.86;98809.53;5124997;27;20197;-62
2021/04/22 08:57:43;;;;;;;5.88;1.90;;;;;;;23.51;46.57;98817.69;5123337;27;20268;-61
2021/04/22 09:00:13;;;;;;;2.78;1.73;;;;;;;23.50;46.16;98822.22;5121263;27;20203;-65
2021/04/22 09:02:39;;;;;;;7.47;1.90;;;;;;;23.51;45.98;98823.03;5125042;27;20228;-64
2021/04/22 09:05:08;;;;;;;5.05;1.75;;;;;;;23.55;46.07;98827.91;5115940;27;20213;-62
2021/04/22 09:07:34;;;;;;;4.93;1.65;;;;;;;23.59;45.92;98837.25;5124554;27;20537;-59
2021/04/22 09:10:02;;;;;;;4.35;1.70;;;;;;;23.53;46.52;98835.25;5121382;27;20444;-61
2021/04/22 09:12:29;;;;;;;5.60;1.60;;;;;;;23.52;45.95;98838.91;5126777;27;20292;-63
2021/04/22 09:14:58;;;;;;;3.78;1.20;;;;;;;23.50;46.37;98838.22;5124415;27;20281;-61
2021/04/22 09:17:25;;;;;;;6.80;1.75;;;;;;;23.51;46.69;98837.22;5125906;27;20201;-58
2021/04/22 09:19:52;;;;;;;5.03;1.85;;;;;;;23.53;46.14;98829.91;5134402;27;20196;-61
2021/04/22 09:22:19;;;;;;;3.90;1.65;;;;;;;23.50;46.14;98829.34;5129934;27;20228;-66
2021/04/22 09:24:46;;;;;;;4.57;1.65;;;;;;;23.51;46.31;98829.19;5117914;27;20209;-63
2021/04/22 09:27:15;;;;;;;3.97;1.60;;;;;;;23.56;46.34;98839.41;5122628;27;20227;-63
2021/04/22 09:29:45;;;;;;;4.78;1.90;;;;;;;23.59;46.66;98839.94;5122453;27;20676;-61
2021/04/22 09:32:16;;;;;;;5.13;1.60;;;;;;;23.51;45.81;98834.53;5125874;27;20216;-62
2021/04/22 09:34:46;;;;;;;6.10;1.45;;;;;;;23.49;46.27;98839.22;5122057;27;20200;-61
2021/04/22 09:37:12;;;;;;;17.75;1.98;;;;;;;23.55;46.30;98833.25;5124986;28;20203;-61
2021/04/22 09:39:40;;;;;;;14.85;2.63;;;;;;;23.62;45.62;98831.59;5121010;27;20523;-62
2021/04/22 09:42:09;;;;;;;8.25;3.05;;;;;;;23.44;41.82;98839.66;5121959;27;20232;-61
2021/04/22 09:44:36;;;;;;;12.13;2.60;;;;;;;23.44;44.14;98838.84;5122181;27;20204;-66
2021/04/22 09:47:07;;;;;;;7.20;1.80;;;;;;;23.50;44.90;98838.22;5122453;27;20254;-63
2021/04/22 09:49:44;;;;;;;4.78;1.90;;;;;;;23.53;45.92;98837.91;5122064;27;20787;-60
2021/04/22 09:52:14;;;;;;;5.15;1.50;;;;;;;23.54;45.84;98839.56;5122650;27;20212;-63
2021/04/22 09:54:46;;;;;;;9.70;1.88;;;;;;;23.55;45.98;98841.25;5121899;27;20245;-66
2021/04/22 09:57:22;;;;;;;4.35;1.48;;;;;;;23.57;44.93;98846.44;5122470;27;20248;-63
2021/04/22 09:59:48;;;;;;;5.20;1.65;;;;;;;23.58;46.13;98840.09;5124085;27;20324;-63
2021/04/22 10:02:15;;;;;;;6.90;1.70;;;;;;;23.55;45.55;98841.25;5118436;27;20646;-63
2021/04/22 10:04:43;;;;;;;4.20;1.40;;;;;;;23.57;45.00;98841.09;5122048;28;20684;-64
2021/04/22 10:07:22;;;;;;;5.65;1.58;;;;;;;23.58;45.92;98843.63;5119397;27;20203;-63
2021/04/22 10:09:51;;;;;;;3.60;1.48;;;;;;;23.57;45.35;98841.94;5118557;27;20223;-59
2021/04/22 10:12:23;;;;;;;3.92;1.30;;;;;;;23.56;45.56;98845.56;5120808;27;20341;-64
2021/04/22 10:14:49;;;;;;;8.27;1.70;;;;;;;23.58;45.73;98843.63;5126189;27;20807;-59
2021/04/22 10:17:16;;;;;;;3.42;1.52;;;;;;;23.58;45.46;98838.28;5116376;27;20239;-61
2021/04/22 10:19:43;;;;;;;2.92;1.30;;;;;;;23.58;45.60;98832.94;5126511;27;20197;-62
2021/04/22 10:22:09;;;;;;;4.53;1.25;;;;;;;23.58;45.96;98824.06;5126238;27;20236;-61
2021/04/22 10:24:36;;;;;;;3.60;1.58;;;;;;;23.56;45.87;98836.75;5126025;27;20222;-63
2021/04/22 10:27:04;;;;;;;12.02;2.10;;;;;;;23.60;45.51;98825.59;5126613;27;20610;-64
2021/04/22 10:29:31;;;;;;;3.92;1.50;;;;;;;23.64;45.58;98832.28;5123384;27;20205;-65
2021/04/22 10:31:59;;;;;;;3.80;1.40;;;;;;;23.62;46.00;98833.44;5132446;27;20687;-64
2021/04/22 10:34:30;;;;;;;5.70;1.98;;;;;;;23.58;47.06;98832.06;5127582;27;20201;-67
2021/04/22 10:36:57;;;;;;;2.08;1.20;;;;;;;23.53;46.63;98827.25;5126428;27;20192;-67
2021/04/22 10:39:24;;;;;;;4.18;1.90;;;;;;;23.52;46.31;98828.22;5126779;27;20241;-67
2021/04/22 10:41:52;;;;;;;3.42;1.50;;;;;;;23.53;46.30;98821.03;5124447;27;20369;-67
2021/04/22 10:44:22;;;;;;;3.58;1.67;;;;;;;23.50;46.04;98824.88;5119088;27;20207;-68
2021/04/22 10:46:50;;;;;;;5.15;1.42;;;;;;;23.50;46.89;98824.88;5125018;27;20251;-64
2021/04/22 10:49:17;;;;;;;4.68;1.63;;;;;;;23.43;46.75;98829.16;5123188;27;20205;-66
2021/04/22 10:51:44;;;;;;;4.43;1.10;;;;;;;23.42;46.12;98827.50;5125904;27;20343;-66
2021/04/22 10:54:10;;;;;;;3.58;0.98;;;;;;;23.36;46.38;98820.94;5120362;27;20284;-67
2021/04/22 10:56:36;;;;;;;4.90;1.25;;;;;;;23.38;46.30;98818.13;5127143;27;20541;-66
2021/04/22 10:59:04;;;;;;;6.00;1.40;;;;;;;23.33;47.26;98817.75;5124170;27;20265;-66
2021/04/22 11:01:34;;;;;;;4.40;1.40;;;;;;;23.35;46.43;98815.75;5128125;27;20256;-67
2021/04/22 11:04:07;;;;;;;6.05;1.40;;;;;;;23.34;47.64;98814.94;5122819;27;20293;-65
2021/04/22 11:06:36;;;;;;;14.77;2.60;;;;;;;23.20;38.81;98820.81;5126235;27;20208;-68
2021/04/22 11:09:15;;;;;;;13.15;1.95;;;;;;;23.21;43.63;98815.34;5124489;27;20377;-64
2021/04/22 11:11:57;;;;;;;8.10;1.42;;;;;;;23.17;43.72;98813.97;5123689;27;20212;-62
2021/04/22 11:14:36;;;;;;;14.43;1.60;;;;;;;23.17;45.04;98819.31;5121059;27;20312;-64
2021/04/22 11:17:04;;;;;;;16.58;1.73;;;;;;;23.23;45.42;98813.38;5125670;27;20200;-63
2021/04/22 11:19:36;;;;;;;6.53;1.55;;;;;;;23.26;45.22;98810.41;5131665;27;20204;-61
2021/04/22 11:22:12;;;;;;;7.55;1.52;;;;;;;23.30;45.65;98810.91;5123277;27;20264;-65
2021/04/22 11:24:42;;;;;;;7.38;1.15;;;;;;;23.31;45.41;98809.91;5125234;27;20205;-62
2021/04/22 11:27:11;;;;;;;3.95;1.20;;;;;;;23.34;45.84;98808.75;5113520;27;20308;-60
2021/04/22 11:29:42;;;;;;;5.40;1.70;;;;;;;23.35;46.06;98805.09;5124520;27;20193;-62
2021/04/22 11:32:24;;;;;;;2.97;1.15;;;;;;;23.35;44.87;98802.41;5115676;27;20213;-65